MUCU/SCU METAR and TAF weather

Enter ICAO airport designator
Station Type Date Time Source
MUCU METAR 2021/04/13 21:50 UTC NOAA

MUCU 132150Z 14005KT 110V180 9000 SCT020TCU 27/23 Q1012


Station Type Date Time Source
MUCU Decoded METAR 2021/04/13 21:50 UTC NOAA

Santiago De Cuba, Oriente, Cuba (MUCU) 19-58N 075-51W 55M
Apr 13, 2021 - 05:50 PM EDT / 2021.04.13 2150 UTC
Wind: from the SE (140 degrees) at 6 MPH (5 KT) (direction variable):0
Visibility: 5 mile(s):0
Sky conditions: partly cloudy
Weather: Towering cumulus clouds observed
Temperature: 80 F (27 C)
Dew Point: 73 F (23 C)
Relative Humidity: 78%
Pressure (altimeter): 29.88 in. Hg (1012 hPa)
ob: MUCU 132150Z 14005KT 110V180 9000 SCT020TCU 27/23 Q1012
cycle: 22

Station Type Date Time Source
MUCU TAF 2021/04/13 18:03 UTC NOAA

TAF MUCU 131700Z 1318/1418 36010KT 9000 SCT020 BKN030
TEMPO 1320/1324 VRB15G25KT 4000 SHRA FEW018CB BKN020

Example: see airport list